Time,TemperatureF,DewpointF,PressureIn,WindDirection,WindDirectionDegrees,WindSpeedMPH,WindSpeedGustMPH,Humidity,HourlyPrecipIn,Conditions,Clouds,dailyrainin,SolarRadiationWatts/m^2,SoftwareType,DateUTC
2013-06-03 00:22:00,81.0,14.0,-100.00,South,183,12.0,18.0,8,0.00,,,-99.99,0.000000,,2013-06-03 06:22:00,
2013-06-03 00:32:00,82.0,15.0,-100.00,SSW,204,8.0,22.0,8,0.00,,,-99.99,0.000000,,2013-06-03 06:32:00,
2013-06-03 00:42:00,79.0,20.0,-100.00,SW,227,11.0,16.0,11,0.00,,,-99.99,0.000000,,2013-06-03 06:42:00,
2013-06-03 00:52:00,79.0,17.0,-100.00,WSW,243,10.0,17.0,10,0.00,,,-99.99,0.000000,,2013-06-03 06:52:00,
2013-06-03 01:02:00,76.0,20.0,-100.00,West,261,8.0,16.0,12,0.00,,,-99.99,0.000000,,2013-06-03 07:02:00,
2013-06-03 01:12:00,70.0,41.0,-100.00,NW,317,10.0,17.0,34,0.00,,,-99.99,0.000000,,2013-06-03 07:12:00,
2013-06-03 01:22:00,68.0,42.0,-100.00,WNW,283,9.0,18.0,39,0.00,,,-99.99,0.000000,,2013-06-03 07:22:00,
2013-06-03 01:32:00,67.0,42.0,-100.00,West,277,7.0,19.0,40,0.00,,,-99.99,0.000000,,2013-06-03 07:32:00,
2013-06-03 01:42:00,65.0,42.0,-100.00,ESE,117,6.0,10.0,42,0.00,,,-99.99,0.000000,,2013-06-03 07:42:00,
2013-06-03 01:52:00,65.0,41.0,-100.00,East,82,4.0,6.0,42,0.00,,,-99.99,0.000000,,2013-06-03 07:52:00,
2013-06-03 02:01:00,65.0,41.0,-100.00,SSW,197,4.0,9.0,42,0.00,,,-99.99,0.000000,,2013-06-03 08:01:00,
2013-06-03 02:12:00,64.0,41.0,-100.00,SSW,194,4.0,7.0,43,0.00,,,-99.99,0.000000,,2013-06-03 08:12:00,
2013-06-03 02:21:00,63.0,41.0,-100.00,East,95,3.0,9.0,45,0.00,,,-99.99,0.000000,,2013-06-03 08:21:00,
2013-06-03 02:32:00,64.0,41.0,-100.00,SSE,147,2.0,6.0,44,0.00,,,-99.99,0.000000,,2013-06-03 08:32:00,
2013-06-03 02:42:00,62.0,41.0,-100.00,East,93,5.0,7.0,47,0.00,,,-99.99,0.000000,,2013-06-03 08:42:00,
2013-06-03 02:51:00,59.0,41.0,-100.00,SSE,150,3.0,5.0,51,0.00,,,-99.99,0.000000,,2013-06-03 08:51:00,
2013-06-03 03:02:00,59.0,42.0,-100.00,SE,144,4.0,6.0,53,0.00,,,-99.99,0.000000,,2013-06-03 09:02:00,
2013-06-03 03:12:00,62.0,39.0,-100.00,South,186,4.0,9.0,44,0.00,,,-99.99,0.000000,,2013-06-03 09:12:00,
2013-06-03 03:33:00,61.0,39.0,-100.00,East,93,4.0,8.0,44,0.00,,,-99.99,0.000000,,2013-06-03 09:33:00,
2013-06-03 03:42:00,61.0,38.0,-100.00,ESE,105,3.0,7.0,43,0.00,,,-99.99,0.000000,,2013-06-03 09:42:00,
2013-06-03 03:50:00,56.0,39.0,-100.00,South,180,3.0,4.0,53,0.00,,,-99.99,0.000000,,2013-06-03 09:50:00,
2013-06-03 03:52:00,59.0,39.0,-100.00,ESE,121,4.0,6.0,47,0.00,,,-99.99,0.000000,,2013-06-03 09:52:00,
2013-06-03 04:02:00,58.0,39.0,-100.00,SSE,149,4.0,6.0,49,0.00,,,-99.99,0.000000,,2013-06-03 10:02:00,
2013-06-03 04:12:00,56.0,39.0,-100.00,South,180,3.0,4.0,53,0.00,,,-99.99,0.000000,,2013-06-03 10:12:00,
2013-06-03 04:22:00,56.0,39.0,-100.00,South,180,3.0,4.0,53,0.00,,,-99.99,0.000000,,2013-06-03 10:22:00,
2013-06-03 04:32:00,56.0,39.0,-100.00,South,180,3.0,4.0,53,0.00,,,-99.99,0.000000,,2013-06-03 10:32:00,
2013-06-03 04:42:00,56.0,39.0,-100.00,South,180,3.0,4.0,53,0.00,,,-99.99,0.000000,,2013-06-03 10:42:00,
2013-06-03 05:22:00,56.0,31.0,-100.00,ESE,105,4.0,8.0,39,0.00,,,-99.99,0.000000,,2013-06-03 11:22:00,
2013-06-03 05:32:00,54.0,33.0,-100.00,ESE,102,4.0,6.0,44,0.00,,,-99.99,0.000000,,2013-06-03 11:32:00,
2013-06-03 05:42:00,55.0,34.0,-100.00,SE,137,5.0,6.0,45,0.00,,,-99.99,0.000000,,2013-06-03 11:42:00,
2013-06-03 05:52:00,55.0,26.0,-100.00,East,100,4.0,7.0,33,0.00,,,-99.99,0.000000,,2013-06-03 11:52:00,
2013-06-03 06:02:00,55.0,26.0,-100.00,SSE,147,2.0,6.0,32,0.00,,,-99.99,0.000000,,2013-06-03 12:02:00,
2013-06-03 06:12:00,57.0,24.0,-100.00,ESE,102,4.0,7.0,28,0.00,,,-99.99,2.000000,,2013-06-03 12:12:00,
2013-06-03 06:21:00,55.0,24.0,-100.00,SE,127,3.0,7.0,30,0.00,,,-99.99,5.000000,,2013-06-03 12:21:00,
2013-06-03 06:32:00,53.0,26.0,-100.00,SSE,151,3.0,5.0,34,0.00,,,-99.99,8.000000,,2013-06-03 12:32:00,
2013-06-03 06:42:00,54.0,26.0,-100.00,ESE,119,4.0,7.0,34,0.00,,,-99.99,17.000000,,2013-06-03 12:42:00,
2013-06-03 06:52:00,54.0,27.0,-100.00,SE,140,6.0,9.0,35,0.00,,,-99.99,25.000000,,2013-06-03 12:52:00,
2013-06-03 07:02:00,54.0,27.0,-100.00,SSE,161,6.0,9.0,36,0.00,,,-99.99,72.000000,,2013-06-03 13:02:00,
2013-06-03 07:12:00,56.0,27.0,-100.00,SE,141,2.0,4.0,33,0.00,,,-99.99,96.000000,,2013-06-03 13:12:00,
2013-06-03 07:22:00,56.0,28.0,-100.00,SSE,163,4.0,9.0,33,0.00,,,-99.99,125.000000,,2013-06-03 13:22:00,
2013-06-03 07:32:00,57.0,30.0,-100.00,SSE,163,5.0,7.0,35,0.00,,,-99.99,155.000000,,2013-06-03 13:32:00,
2013-06-03 07:42:00,60.0,31.0,-100.00,SE,145,3.0,4.0,33,0.00,,,-99.99,183.000000,,2013-06-03 13:42:00,
2013-06-03 07:52:00,60.0,31.0,-100.00,SE,145,3.0,4.0,33,0.00,,,-99.99,183.000000,,2013-06-03 13:52:00,
2013-06-03 08:02:00,64.0,29.0,-100.00,South,170,0.0,1.0,27,0.00,,,-99.99,246.000000,,2013-06-03 14:02:00,
2013-06-03 08:12:00,61.0,36.0,-100.00,South,191,2.0,4.0,39,0.00,,,-99.99,273.000000,,2013-06-03 14:12:00,
2013-06-03 08:22:00,65.0,38.0,-100.00,SE,139,2.0,3.0,37,0.00,,,-99.99,308.000000,,2013-06-03 14:22:00,
2013-06-03 08:32:00,62.0,31.0,-100.00,WNW,300,2.0,4.0,30,0.00,,,-99.99,341.000000,,2013-06-03 14:32:00,
2013-06-03 08:42:00,63.0,29.0,-100.00,NW,305,3.0,5.0,28,0.00,,,-99.99,373.000000,,2013-06-03 14:42:00,
2013-06-03 08:50:00,62.0,32.0,-100.00,NW,315,4.0,6.0,32,0.00,,,-99.99,473.000000,,2013-06-03 14:50:00,
2013-06-03 08:52:00,62.0,33.0,-100.00,NW,318,3.0,5.0,34,0.00,,,-99.99,406.000000,,2013-06-03 14:52:00,
2013-06-03 09:02:00,62.0,31.0,-100.00,NW,315,5.0,7.0,31,0.00,,,-99.99,442.000000,,2013-06-03 15:02:00,
2013-06-03 09:12:00,62.0,32.0,-100.00,NW,315,4.0,6.0,32,0.00,,,-99.99,473.000000,,2013-06-03 15:12:00,
2013-06-03 09:21:00,62.0,32.0,-100.00,NW,315,4.0,6.0,32,0.00,,,-99.99,473.000000,,2013-06-03 15:21:00,
2013-06-03 09:33:00,62.0,32.0,-100.00,NW,315,4.0,6.0,32,0.00,,,-99.99,473.000000,,2013-06-03 15:33:00,
2013-06-03 09:43:00,62.0,32.0,-100.00,NW,315,4.0,6.0,32,0.00,,,-99.99,473.000000,,2013-06-03 15:43:00,
2013-06-03 10:23:00,67.0,27.0,-100.00,SSW,192,2.0,4.0,22,0.00,,,-99.99,686.000000,,2013-06-03 16:23:00,
2013-06-03 10:33:00,67.0,26.0,-100.00,SW,229,3.0,7.0,21,0.00,,,-99.99,713.000000,,2013-06-03 16:33:00,
2013-06-03 10:42:00,66.0,26.0,-100.00,NW,309,4.0,8.0,22,0.00,,,-99.99,741.000000,,2013-06-03 16:42:00,
2013-06-03 10:53:00,66.0,25.0,-100.00,SSW,193,5.0,7.0,21,0.00,,,-99.99,766.000000,,2013-06-03 16:53:00,
2013-06-03 11:02:00,67.0,30.0,-100.00,West,275,5.0,8.0,25,0.00,,,-99.99,810.000000,,2013-06-03 17:02:00,
2013-06-03 11:12:00,67.0,28.0,-100.00,NNW,332,4.0,8.0,23,0.00,,,-99.99,810.000000,,2013-06-03 17:12:00,
2013-06-03 11:22:00,67.0,33.0,-100.00,West,274,4.0,8.0,28,0.00,,,-99.99,828.000000,,2013-06-03 17:22:00,
2013-06-03 11:33:00,68.0,32.0,-100.00,SSE,164,3.0,6.0,26,0.00,,,-99.99,849.000000,,2013-06-03 17:33:00,
2013-06-03 11:42:00,69.0,29.0,-100.00,ENE,68,4.0,7.0,23,0.00,,,-99.99,868.000000,,2013-06-03 17:42:00,
2013-06-03 11:52:00,69.0,29.0,-100.00,SE,132,5.0,7.0,22,0.00,,,-99.99,887.000000,,2013-06-03 17:52:00,
2013-06-03 12:02:00,69.0,30.0,-100.00,SSW,211,4.0,6.0,23,0.00,,,-99.99,902.000000,,2013-06-03 18:02:00,
2013-06-03 12:12:00,69.0,29.0,-100.00,NW,314,4.0,6.0,22,0.00,,,-99.99,916.000000,,2013-06-03 18:12:00,
2013-06-03 12:22:00,69.0,33.0,-100.00,South,179,3.0,6.0,26,0.00,,,-99.99,934.000000,,2013-06-03 18:22:00,
2013-06-03 12:32:00,70.0,28.0,-100.00,SW,227,4.0,7.0,21,0.00,,,-99.99,946.000000,,2013-06-03 18:32:00,
2013-06-03 12:42:00,70.0,35.0,-100.00,East,89,4.0,9.0,28,0.00,,,-99.99,957.000000,,2013-06-03 18:42:00,
2013-06-03 12:52:00,70.0,34.0,-100.00,ESE,119,4.0,7.0,26,0.00,,,-99.99,964.000000,,2013-06-03 18:52:00,
2013-06-03 13:03:00,71.0,36.0,-100.00,ESE,103,5.0,8.0,28,0.00,,,-99.99,965.000000,,2013-06-03 19:03:00,
2013-06-03 13:12:00,71.0,34.0,-100.00,ESE,103,5.0,9.0,26,0.00,,,-99.99,969.000000,,2013-06-03 19:12:00,
2013-06-03 13:22:00,72.0,33.0,-100.00,SSE,152,5.0,8.0,24,0.00,,,-99.99,973.000000,,2013-06-03 19:22:00,
2013-06-03 13:32:00,72.0,35.0,-100.00,ESE,113,5.0,10.0,26,0.00,,,-99.99,975.000000,,2013-06-03 19:32:00,
2013-06-03 13:42:00,71.0,35.0,-100.00,SSW,210,5.0,7.0,26,0.00,,,-99.99,976.000000,,2013-06-03 19:42:00,
2013-06-03 13:50:00,73.0,32.0,-100.00,WNW,295,5.0,7.0,22,0.00,,,-99.99,967.000000,,2013-06-03 19:50:00,
2013-06-03 13:52:00,73.0,36.0,-100.00,SE,146,5.0,9.0,26,0.00,,,-99.99,975.000000,,2013-06-03 19:52:00,
2013-06-03 14:02:00,73.0,35.0,-100.00,SE,142,5.0,8.0,25,0.00,,,-99.99,971.000000,,2013-06-03 20:02:00,
2013-06-03 14:12:00,73.0,32.0,-100.00,WNW,295,5.0,7.0,22,0.00,,,-99.99,967.000000,,2013-06-03 20:12:00,
2013-06-03 14:22:00,73.0,32.0,-100.00,WNW,295,5.0,7.0,22,0.00,,,-99.99,967.000000,,2013-06-03 20:22:00,
2013-06-03 14:32:00,73.0,32.0,-100.00,WNW,295,5.0,7.0,22,0.00,,,-99.99,967.000000,,2013-06-03 20:32:00,
2013-06-03 14:42:00,73.0,32.0,-100.00,WNW,295,5.0,7.0,22,0.00,,,-99.99,967.000000,,2013-06-03 20:42:00,
2013-06-03 15:22:00,75.0,39.0,-100.00,WNW,289,5.0,9.0,27,0.00,,,-99.99,897.000000,,2013-06-03 21:22:00,
2013-06-03 15:33:00,76.0,32.0,-100.00,NNW,332,4.0,8.0,20,0.00,,,-99.99,883.000000,,2013-06-03 21:33:00,
2013-06-03 15:43:00,76.0,37.0,-100.00,West,277,5.0,10.0,25,0.00,,,-99.99,865.000000,,2013-06-03 21:43:00,
2013-06-03 15:53:00,75.0,34.0,-100.00,WSW,242,6.0,10.0,22,0.00,,,-99.99,848.000000,,2013-06-03 21:53:00,
2013-06-03 16:02:00,76.0,35.0,-100.00,WSW,258,4.0,8.0,23,0.00,,,-99.99,827.000000,,2013-06-03 22:02:00,
2013-06-03 16:12:00,77.0,33.0,-100.00,SSW,199,3.0,7.0,20,0.00,,,-99.99,804.000000,,2013-06-03 22:12:00,
2013-06-03 16:22:00,77.0,34.0,-100.00,WNW,289,4.0,6.0,21,0.00,,,-99.99,787.000000,,2013-06-03 22:22:00,
2013-06-03 16:32:00,77.0,37.0,-100.00,NW,312,5.0,8.0,24,0.00,,,-99.99,764.000000,,2013-06-03 22:32:00,
2013-06-03 16:42:00,76.0,35.0,-100.00,NW,308,5.0,7.0,22,0.00,,,-99.99,737.000000,,2013-06-03 22:42:00,
2013-06-03 16:52:00,76.0,36.0,-100.00,WNW,291,7.0,11.0,24,0.00,,,-99.99,713.000000,,2013-06-03 22:52:00,
2013-06-03 17:02:00,76.0,35.0,-100.00,WNW,294,6.0,9.0,23,0.00,,,-99.99,687.000000,,2013-06-03 23:02:00,
2013-06-03 17:12:00,76.0,34.0,-100.00,WNW,296,7.0,9.0,22,0.00,,,-99.99,660.000000,,2013-06-03 23:12:00,
2013-06-03 17:22:00,76.0,33.0,-100.00,WNW,291,5.0,7.0,21,0.00,,,-99.99,634.000000,,2013-06-03 23:22:00,
2013-06-03 17:32:00,76.0,36.0,-100.00,NW,313,5.0,9.0,24,0.00,,,-99.99,605.000000,,2013-06-03 23:32:00,
2013-06-03 17:42:00,76.0,39.0,-100.00,West,270,4.0,7.0,26,0.00,,,-99.99,574.000000,,2013-06-03 23:42:00,
2013-06-03 17:52:00,75.0,36.0,-100.00,WSW,258,6.0,9.0,24,0.00,,,-99.99,544.000000,,2013-06-03 23:52:00,
2013-06-03 18:02:00,74.0,37.0,-100.00,NW,315,8.0,10.0,26,0.00,,,-99.99,514.000000,,2013-06-04 00:02:00,
2013-06-03 18:12:00,74.0,38.0,-100.00,NW,310,8.0,12.0,28,0.00,,,-99.99,483.000000,,2013-06-04 00:12:00,
2013-06-03 18:21:00,73.0,36.0,-100.00,NW,321,9.0,14.0,26,0.00,,,-99.99,454.000000,,2013-06-04 00:21:00,
2013-06-03 18:32:00,72.0,38.0,-100.00,NW,324,9.0,13.0,28,0.00,,,-99.99,423.000000,,2013-06-04 00:32:00,
2013-06-03 18:42:00,72.0,37.0,-100.00,NW,313,10.0,15.0,28,0.00,,,-99.99,393.000000,,2013-06-04 00:42:00,
2013-06-03 18:50:00,72.0,37.0,-100.00,NW,321,7.0,11.0,28,0.00,,,-99.99,298.000000,,2013-06-04 00:50:00,
2013-06-03 18:52:00,72.0,38.0,-100.00,NW,311,9.0,14.0,29,0.00,,,-99.99,360.000000,,2013-06-04 00:52:00,
2013-06-03 19:02:00,72.0,39.0,-100.00,NW,313,7.0,11.0,30,0.00,,,-99.99,329.000000,,2013-06-04 01:02:00,
2013-06-03 19:12:00,72.0,37.0,-100.00,NW,321,7.0,11.0,28,0.00,,,-99.99,298.000000,,2013-06-04 01:12:00,
2013-06-03 19:21:00,72.0,37.0,-100.00,NW,321,7.0,11.0,28,0.00,,,-99.99,298.000000,,2013-06-04 01:21:00,
2013-06-03 19:32:00,72.0,37.0,-100.00,NW,321,7.0,11.0,28,0.00,,,-99.99,298.000000,,2013-06-04 01:32:00,
2013-06-03 19:42:00,72.0,37.0,-100.00,NW,321,7.0,11.0,28,0.00,,,-99.99,298.000000,,2013-06-04 01:42:00,
2013-06-03 20:22:00,67.0,37.0,-100.00,East,88,4.0,11.0,33,0.00,,,-99.99,100.000000,,2013-06-04 02:22:00,
2013-06-03 20:32:00,67.0,34.0,-100.00,ESE,110,1.0,5.0,30,0.00,,,-99.99,77.000000,,2013-06-04 02:32:00,
2013-06-03 20:42:00,66.0,34.0,-100.00,SW,229,2.0,3.0,30,0.00,,,-99.99,55.000000,,2013-06-04 02:42:00,
2013-06-03 20:52:00,62.0,40.0,-100.00,SSW,204,1.0,5.0,44,0.00,,,-99.99,36.000000,,2013-06-04 02:52:00,
2013-06-03 21:02:00,59.0,39.0,-100.00,South,191,5.0,5.0,47,0.00,,,-99.99,11.000000,,2013-06-04 03:02:00,
2013-06-03 21:11:00,58.0,36.0,-100.00,South,169,5.0,6.0,43,0.00,,,-99.99,5.000000,,2013-06-04 03:11:00,
2013-06-03 21:21:00,57.0,36.0,-100.00,South,169,6.0,7.0,45,0.00,,,-99.99,2.000000,,2013-06-04 03:21:00,
2013-06-03 21:32:00,57.0,37.0,-100.00,South,177,5.0,7.0,47,0.00,,,-99.99,0.000000,,2013-06-04 03:32:00,
2013-06-03 21:43:00,57.0,35.0,-100.00,SSE,168,6.0,8.0,43,0.00,,,-99.99,0.000000,,2013-06-04 03:43:00,
2013-06-03 21:53:00,58.0,35.0,-100.00,South,172,6.0,8.0,41,0.00,,,-99.99,0.000000,,2013-06-04 03:53:00,
2013-06-03 22:02:00,58.0,34.0,-100.00,South,171,6.0,8.0,40,0.00,,,-99.99,0.000000,,2013-06-04 04:02:00,
2013-06-03 22:13:00,58.0,34.0,-100.00,South,175,5.0,7.0,40,0.00,,,-99.99,0.000000,,2013-06-04 04:13:00,
2013-06-03 22:22:00,58.0,33.0,-100.00,South,174,5.0,6.0,40,0.00,,,-99.99,0.000000,,2013-06-04 04:22:00,
2013-06-03 22:33:00,57.0,32.0,-100.00,SSE,163,5.0,7.0,39,0.00,,,-99.99,0.000000,,2013-06-04 04:33:00,
2013-06-03 22:42:00,56.0,31.0,-100.00,SSE,163,5.0,7.0,39,0.00,,,-99.99,0.000000,,2013-06-04 04:42:00,
2013-06-03 22:52:00,57.0,31.0,-100.00,SSE,168,6.0,7.0,37,0.00,,,-99.99,0.000000,,2013-06-04 04:52:00,
2013-06-03 23:02:00,57.0,30.0,-100.00,SSE,163,6.0,7.0,36,0.00,,,-99.99,0.000000,,2013-06-04 05:02:00,
2013-06-03 23:12:00,57.0,30.0,-100.00,South,172,5.0,7.0,36,0.00,,,-99.99,0.000000,,2013-06-04 05:12:00,
2013-06-03 23:21:00,56.0,28.0,-100.00,South,176,6.0,8.0,34,0.00,,,-99.99,0.000000,,2013-06-04 05:21:00,
2013-06-03 23:32:00,56.0,27.0,-100.00,SSE,161,6.0,7.0,33,0.00,,,-99.99,0.000000,,2013-06-04 05:32:00,
2013-06-03 23:42:00,56.0,26.0,-100.00,SSE,163,6.0,8.0,31,0.00,,,-99.99,0.000000,,2013-06-04 05:42:00,
2013-06-03 23:52:00,57.0,25.0,-100.00,SSE,161,7.0,9.0,29,0.00,,,-99.99,0.000000,,2013-06-04 05:52:00,